Time;durP1;ratioP1;P1;durP2;ratioP2;P2;SDS_P1;SDS_P2;PMS_P1;PMS_P2;Temp;Humidity;BMP_temperature;BMP_pressure;BME280_temperature;BME280_humidity;BME280_pressure;Samples;Min_cycle;Max_cycle;Signal;HPM_P1;HPM_P2
2024/01/05 00:02:21;;;;;;;2.83;1.60;;;8.70;99.90;;;8.82;87.21;99430.47;4834216;28;24436;-63
2024/01/05 00:04:43;;;;;;;2.47;1.80;;;8.70;99.90;;;8.80;86.79;99428.00;4823731;28;24973;-65
2024/01/05 00:07:09;;;;;;;1.98;1.75;;;8.70;99.90;;;8.85;86.55;99430.22;4836551;28;24482;-66
2024/01/05 00:09:31;;;;;;;5.75;1.70;;;8.80;99.90;;;8.87;86.32;99431.75;4815613;28;24447;-64
2024/01/05 00:11:53;;;;;;;2.80;1.70;;;8.80;99.90;;;8.85;86.24;99423.25;4805886;28;24509;-67
2024/01/05 00:14:15;;;;;;;2.53;1.70;;;8.80;99.90;;;8.85;85.87;99427.63;4831124;28;24452;-65
2024/01/05 00:16:37;;;;;;;1.63;1.52;;;8.80;99.90;;;8.84;85.83;99413.78;4829397;28;24866;-64
2024/01/05 00:18:59;;;;;;;3.10;1.30;;;8.80;99.90;;;8.81;85.64;99411.47;4836584;28;24584;-65
2024/01/05 00:21:26;;;;;;;1.80;1.40;;;8.80;99.90;;;8.65;86.55;99408.47;4835678;28;24494;-65
2024/01/05 00:23:51;;;;;;;3.08;1.27;;;8.70;99.90;;;8.73;85.56;99411.25;4837305;28;24428;-66
2024/01/05 00:26:13;;;;;;;3.35;1.70;;;8.70;99.90;;;8.75;85.85;99398.13;4819676;28;24998;-65
2024/01/05 00:28:35;;;;;;;2.85;1.60;;;8.70;99.90;;;8.81;85.16;99398.44;4835255;28;24519;-65
2024/01/05 00:30:59;;;;;;;4.37;1.70;;;8.70;99.90;;;8.78;85.55;99401.28;4836774;28;24479;-65
2024/01/05 00:33:21;;;;;;;4.00;1.80;;;8.70;99.90;;;8.78;85.41;99403.91;4815943;28;24464;-64
2024/01/05 00:35:43;;;;;;;2.92;1.50;;;8.70;99.90;;;8.76;85.16;99392.81;4810888;28;24518;-65
2024/01/05 00:38:05;;;;;;;3.50;1.50;;;8.70;99.90;;;8.77;85.05;99398.84;4801544;28;24972;-65
2024/01/05 00:40:27;;;;;;;2.10;1.50;;;8.70;99.90;;;8.77;85.21;99396.22;4835560;28;24523;-65
2024/01/05 00:42:49;;;;;;;2.80;1.40;;;8.70;99.90;;;8.78;84.58;99401.28;4827718;28;24540;-65
2024/01/05 00:45:11;;;;;;;1.25;1.15;;;8.70;99.90;;;8.80;84.44;99402.00;4830742;28;24479;-65
2024/01/05 00:47:33;;;;;;;1.23;0.97;;;8.70;99.90;;;8.84;83.91;99400.78;4813920;28;24433;-65
2024/01/05 00:49:54;;;;;;;3.30;1.52;;;8.80;99.90;;;8.88;83.49;99399.56;4824210;28;24882;-65
2024/01/05 00:52:18;;;;;;;2.78;1.13;;;8.80;99.90;;;8.79;83.75;99399.53;4835671;28;24458;-66
2024/01/05 00:54:41;;;;;;;2.30;1.50;;;8.80;99.90;;;8.81;83.99;99392.41;4807738;28;20871;-67
2024/01/05 00:57:03;;;;;;;4.60;1.80;;;8.80;99.90;;;8.82;83.62;99396.66;4829279;28;24452;-65
2024/01/05 00:59:25;;;;;;;2.75;1.40;;;8.70;99.90;;;8.76;83.38;99404.97;4811810;28;24548;-65
2024/01/05 01:01:47;;;;;;;2.83;1.50;;;8.70;99.90;;;8.75;83.84;99396.38;4835736;28;24996;-65
2024/01/05 01:04:09;;;;;;;2.70;1.40;;;8.70;99.90;;;8.75;83.99;99392.94;4816532;28;24473;-66
2024/01/05 01:06:31;;;;;;;3.30;1.50;;;8.70;99.90;;;8.74;84.04;99394.72;4831934;28;24616;-65
2024/01/05 01:08:53;;;;;;;3.00;1.40;;;8.70;99.90;;;8.70;84.25;99395.91;4803570;28;24448;-65
2024/01/05 01:11:17;;;;;;;2.20;1.40;;;8.70;99.90;;;8.62;84.67;99393.13;4828918;28;24512;-65
2024/01/05 01:13:39;;;;;;;2.78;1.40;;;8.60;99.90;;;8.71;84.23;99388.94;4815312;28;25041;-65
2024/01/05 01:16:00;;;;;;;4.63;1.77;;;8.60;99.90;;;8.70;84.32;99389.88;4835291;28;24724;-66
2024/01/05 01:18:22;;;;;;;3.80;1.80;;;8.60;99.90;;;8.75;84.46;99374.72;4816898;28;24476;-64
2024/01/05 01:20:45;;;;;;;2.20;1.65;;;8.70;99.90;;;8.75;84.09;99374.72;4827921;28;24527;-65
2024/01/05 01:23:06;;;;;;;3.70;2.10;;;8.70;99.90;;;8.71;84.30;99374.16;4834771;28;24570;-66
2024/01/05 01:25:28;;;;;;;3.17;1.80;;;8.70;99.90;;;8.66;84.65;99384.13;4821062;28;24523;-65
2024/01/05 01:27:50;;;;;;;9.10;1.92;;;8.60;99.90;;;8.58;84.91;99384.75;4837692;28;24519;-64
2024/01/05 01:30:12;;;;;;;5.22;1.73;;;8.60;99.90;;;8.50;85.65;99383.75;4839017;28;20782;-65
2024/01/05 01:32:36;;;;;;;4.88;1.75;;;8.50;99.90;;;8.49;85.63;99369.09;4833596;28;24428;-65
2024/01/05 01:34:59;;;;;;;5.00;2.10;;;8.50;99.90;;;8.47;86.03;99373.63;4839780;28;24436;-64
2024/01/05 01:37:20;;;;;;;3.40;1.80;;;8.40;99.90;;;8.43;85.91;99356.63;4839573;28;24452;-65
2024/01/05 01:39:44;;;;;;;8.05;2.40;;;8.40;99.90;;;8.36;85.94;99348.50;4809251;28;25006;-65
2024/01/05 01:42:06;;;;;;;3.27;1.97;;;8.30;99.90;;;8.32;86.66;99349.72;4830739;28;24976;-64
2024/01/05 01:44:28;;;;;;;3.00;1.80;;;8.30;99.90;;;8.25;87.25;99361.56;4834174;28;24551;-64
2024/01/05 01:46:56;;;;;;;2.15;1.83;;;8.20;99.90;;;8.21;87.00;99352.34;4800300;28;24545;-64
2024/01/05 01:49:18;;;;;;;4.38;2.20;;;8.20;99.90;;;8.21;87.14;99351.50;4809977;28;24460;-64
2024/01/05 01:51:41;;;;;;;2.70;2.10;;;8.10;99.90;;;8.20;87.46;99345.47;4821514;28;25089;-64
2024/01/05 01:54:05;;;;;;;4.95;2.40;;;8.10;99.90;;;8.18;87.49;99344.78;4812182;28;24471;-67
2024/01/05 01:56:27;;;;;;;5.47;2.15;;;8.10;99.90;;;8.22;87.15;99342.78;4819809;28;24474;-64
2024/01/05 01:58:49;;;;;;;2.90;1.70;;;8.20;99.90;;;8.14;87.47;99335.59;4836404;28;24532;-64
2024/01/05 02:01:11;;;;;;;6.10;2.15;;;8.10;99.90;;;8.11;87.45;99340.25;4814721;28;24439;-65
2024/01/05 02:03:34;;;;;;;5.70;2.10;;;8.10;99.90;;;8.12;87.75;99340.09;4802540;28;24547;-64
2024/01/05 02:05:57;;;;;;;3.22;1.77;;;8.10;99.90;;;8.12;87.36;99331.47;4813510;28;25056;-65
2024/01/05 02:08:19;;;;;;;4.90;2.20;;;8.10;99.90;;;8.06;87.76;99327.63;4806312;28;24472;-65
2024/01/05 02:10:41;;;;;;;2.28;2.00;;;8.00;99.90;;;8.02;87.79;99328.00;4821695;28;24426;-65
2024/01/05 02:13:03;;;;;;;3.40;1.90;;;8.00;99.90;;;7.97;88.40;99322.34;4838465;28;24460;-66
2024/01/05 02:15:26;;;;;;;5.60;2.13;;;8.00;99.90;;;8.02;88.31;99320.19;4838560;28;24431;-65
2024/01/05 02:17:48;;;;;;;1.95;1.75;;;8.00;99.90;;;7.91;88.67;99322.84;4826998;28;24475;-64
2024/01/05 02:20:10;;;;;;;2.60;1.70;;;7.90;99.90;;;7.84;88.86;99323.34;4816941;28;24433;-64
2024/01/05 02:22:35;;;;;;;3.47;2.10;;;7.90;99.90;;;7.84;89.11;99314.72;4836581;28;24524;-64
2024/01/05 02:24:57;;;;;;;3.97;2.20;;;7.80;99.90;;;7.83;89.45;99321.72;4819657;28;24528;-65
2024/01/05 02:27:19;;;;;;;6.93;2.28;;;7.80;99.90;;;7.86;89.05;99314.63;4820294;28;24519;-66
2024/01/05 02:29:41;;;;;;;3.10;2.10;;;7.80;99.90;;;7.84;89.07;99312.97;4837473;28;25006;-66
2024/01/05 02:32:03;;;;;;;2.47;1.70;;;7.80;99.90;;;7.81;89.81;99310.59;4831085;28;25059;-65
2024/01/05 02:34:25;;;;;;;4.78;2.47;;;7.80;99.90;;;7.82;90.21;99316.63;4809994;28;24520;-65
2024/01/05 02:36:48;;;;;;;7.53;2.20;;;7.80;99.90;;;7.82;89.60;99308.84;4819112;28;25017;-66
2024/01/05 02:39:12;;;;;;;3.00;2.42;;;7.80;99.90;;;7.83;89.55;99300.94;4825364;28;24547;-66
2024/01/05 02:41:34;;;;;;;3.58;2.00;;;7.80;99.90;;;7.80;89.84;99298.59;4836083;28;24882;-65
2024/01/05 02:43:56;;;;;;;3.40;2.20;;;7.80;99.90;;;7.83;90.11;99295.75;4823572;28;24543;-65
2024/01/05 02:46:18;;;;;;;3.80;2.37;;;7.80;99.90;;;7.79;90.06;99290.94;4838406;28;24524;-64
2024/01/05 02:48:40;;;;;;;3.17;2.15;;;7.80;99.90;;;7.77;90.05;99288.44;4818605;28;24448;-65
2024/01/05 02:51:02;;;;;;;3.72;2.55;;;7.70;99.90;;;7.80;89.48;99285.59;4821415;28;24441;-64
2024/01/05 02:53:24;;;;;;;3.27;1.70;;;7.80;99.90;;;7.86;89.27;99288.66;4824428;28;24424;-64
2024/01/05 02:55:46;;;;;;;4.15;2.20;;;7.80;99.90;;;7.87;89.52;99287.69;4832219;28;24495;-64
2024/01/05 02:58:08;;;;;;;2.90;1.90;;;7.80;99.90;;;7.91;89.02;99286.50;4826900;28;24549;-64
2024/01/05 03:00:29;;;;;;;4.50;1.80;;;7.90;99.90;;;7.83;89.46;99277.56;4813115;28;24441;-65
2024/01/05 03:02:51;;;;;;;1.88;1.77;;;7.80;99.90;;;7.95;89.35;99277.50;4835548;28;24474;-64
2024/01/05 03:05:13;;;;;;;6.15;1.80;;;7.90;99.90;;;7.94;89.38;99271.50;4815962;28;24448;-63
2024/01/05 03:07:36;;;;;;;2.30;1.50;;;7.90;99.90;;;7.94;88.99;99268.91;4816788;28;24460;-65
2024/01/05 03:09:57;;;;;;;2.75;1.67;;;7.90;99.90;;;7.92;89.19;99267.38;4799327;28;25022;-64
2024/01/05 03:12:19;;;;;;;2.17;1.65;;;7.90;99.90;;;7.90;89.62;99258.88;4836822;28;24488;-65
2024/01/05 03:14:41;;;;;;;6.50;1.97;;;7.90;99.90;;;7.90;89.32;99256.28;4804236;28;24507;-64
2024/01/05 03:17:04;;;;;;;6.32;1.85;;;7.90;99.90;;;7.97;88.80;99260.84;4833295;28;25049;-64
2024/01/05 03:19:26;;;;;;;2.10;1.90;;;7.90;99.90;;;7.97;89.31;99250.44;4823188;28;24527;-65
2024/01/05 03:21:48;;;;;;;4.97;2.10;;;7.90;99.90;;;8.00;88.87;99250.22;4836522;28;24432;-64
2024/01/05 03:24:10;;;;;;;2.50;1.80;;;7.90;99.90;;;8.03;88.58;99249.94;4819484;28;24520;-65
2024/01/05 03:26:32;;;;;;;3.17;1.90;;;8.00;99.90;;;7.99;88.73;99248.53;4831716;28;24552;-65
2024/01/05 03:28:54;;;;;;;3.63;2.10;;;7.90;99.90;;;7.94;89.16;99249.91;4833188;28;25195;-64
2024/01/05 03:31:16;;;;;;;4.73;2.40;;;7.90;99.90;;;7.95;89.02;99241.97;4828034;28;24539;-63
2024/01/05 03:33:39;;;;;;;5.55;2.50;;;7.90;99.90;;;7.91;89.17;99244.94;4824538;28;25159;-64
2024/01/05 03:36:01;;;;;;;2.65;2.40;;;7.90;99.90;;;7.95;89.39;99233.34;4831533;28;24502;-64
2024/01/05 03:38:23;;;;;;;3.97;2.45;;;7.90;99.90;;;8.04;88.84;99237.78;4829944;28;25004;-65
2024/01/05 03:40:45;;;;;;;4.15;2.58;;;7.90;99.90;;;7.98;88.78;99233.09;4790339;28;24424;-63
2024/01/05 03:43:07;;;;;;;1.90;1.80;;;7.90;99.90;;;8.00;88.78;99233.78;4835998;28;24520;-64
2024/01/05 03:45:29;;;;;;;2.85;2.30;;;7.90;99.90;;;7.96;88.75;99230.66;4816209;28;24860;-64
2024/01/05 03:47:51;;;;;;;4.10;2.40;;;7.90;99.90;;;7.90;89.01;99227.72;4815837;28;24831;-64
2024/01/05 03:50:13;;;;;;;2.90;2.20;;;7.90;99.90;;;7.92;89.26;99231.03;4827669;28;25048;-64
2024/01/05 03:52:36;;;;;;;4.20;2.30;;;7.90;99.90;;;7.93;89.49;99232.66;4834830;28;24551;-64
2024/01/05 03:54:58;;;;;;;3.63;2.50;;;7.90;99.90;;;7.92;89.40;99226.66;4836308;28;24528;-64
2024/01/05 03:57:21;;;;;;;8.75;2.60;;;7.90;99.90;;;7.94;88.98;99229.94;4819735;28;24459;-64
2024/01/05 03:59:43;;;;;;;3.75;2.45;;;7.90;99.90;;;7.86;89.92;99228.94;4831296;28;24500;-64
2024/01/05 04:02:05;;;;;;;6.40;2.50;;;7.90;99.90;;;7.80;89.80;99212.91;4836480;28;24491;-65
2024/01/05 04:04:27;;;;;;;3.58;2.30;;;7.80;99.90;;;7.78;90.31;99214.81;4812113;28;24493;-64
2024/01/05 04:06:51;;;;;;;4.55;2.20;;;7.80;99.90;;;7.77;90.00;99207.16;4819089;28;24459;-65
2024/01/05 04:09:13;;;;;;;3.73;2.60;;;7.80;99.90;;;7.82;89.84;99205.81;4820684;28;24448;-66
2024/01/05 04:11:36;;;;;;;4.13;2.28;;;7.80;99.90;;;7.90;89.55;99193.97;4835985;28;24439;-66
2024/01/05 04:13:58;;;;;;;2.45;2.03;;;7.80;99.90;;;7.95;89.71;99196.97;4818285;28;24511;-65
2024/01/05 04:16:20;;;;;;;4.35;2.22;;;7.80;99.90;;;7.95;89.65;99192.63;4836679;28;24847;-64
2024/01/05 04:18:42;;;;;;;3.15;2.20;;;7.90;99.90;;;7.92;89.83;99190.31;4818286;28;24859;-63
2024/01/05 04:21:04;;;;;;;4.50;2.40;;;7.90;99.90;;;7.91;89.34;99187.81;4816508;28;24532;-65
2024/01/05 04:23:26;;;;;;;7.15;2.30;;;7.90;99.90;;;7.92;89.62;99184.28;4833620;28;24455;-64
2024/01/05 04:25:48;;;;;;;7.18;2.83;;;7.90;99.90;;;7.87;90.14;99178.63;4836713;28;24490;-64
2024/01/05 04:28:10;;;;;;;2.47;2.28;;;7.90;99.90;;;7.84;89.99;99188.31;4835858;28;25013;-64
2024/01/05 04:30:32;;;;;;;3.80;2.47;;;7.80;99.90;;;7.89;89.66;99197.50;4815451;28;25096;-64
2024/01/05 04:32:55;;;;;;;2.70;1.52;;;7.80;99.90;;;7.94;88.99;99192.75;4828399;28;24571;-64
2024/01/05 04:35:17;;;;;;;2.90;1.90;;;7.90;99.90;;;7.98;88.49;99194.97;4782080;28;24460;-64
2024/01/05 04:37:39;;;;;;;2.20;1.60;;;7.90;99.90;;;7.94;89.42;99193.59;4814172;28;24507;-64
2024/01/05 04:40:00;;;;;;;1.55;1.45;;;7.90;99.90;;;7.92;89.40;99203.28;4835133;28;24451;-64
2024/01/05 04:42:23;;;;;;;4.30;1.80;;;7.90;99.90;;;7.93;89.69;99194.53;4834378;28;24499;-64
2024/01/05 04:44:45;;;;;;;1.70;1.60;;;7.90;99.90;;;7.94;90.50;99190.16;4826534;28;24436;-64
2024/01/05 04:47:06;;;;;;;4.13;2.20;;;7.90;99.90;;;7.95;91.01;99191.78;4817709;28;24440;-63
2024/01/05 04:49:28;;;;;;;4.70;1.98;;;7.90;99.90;;;7.91;90.61;99198.19;4802370;28;24900;-63
2024/01/05 04:51:50;;;;;;;2.90;1.70;;;7.90;99.90;;;7.91;90.71;99198.19;4817720;28;24433;-64
2024/01/05 04:54:13;;;;;;;2.50;1.75;;;7.90;99.90;;;7.96;91.35;99190.84;4798420;28;24444;-64
2024/01/05 04:56:34;;;;;;;6.80;2.10;;;7.90;99.90;;;7.95;91.47;99194.38;4832740;28;24448;-65
2024/01/05 04:58:56;;;;;;;3.88;2.10;;;7.90;99.90;;;7.90;91.51;99197.38;4833352;28;24491;-64
2024/01/05 05:01:19;;;;;;;5.35;2.25;;;7.90;99.90;;;7.91;90.87;99193.00;4815502;28;24529;-63
2024/01/05 05:03:41;;;;;;;3.03;2.00;;;7.90;99.90;;;7.94;91.17;99195.34;4815424;28;24808;-64
2024/01/05 05:06:03;;;;;;;5.93;2.75;;;7.90;99.90;;;7.99;90.50;99193.19;4817474;28;24437;-64
2024/01/05 05:08:25;;;;;;;5.67;2.40;;;7.90;99.90;;;8.03;89.98;99195.41;4801671;28;24439;-64
2024/01/05 05:10:47;;;;;;;2.67;2.15;;;8.00;99.90;;;7.95;90.85;99192.63;4836612;28;24432;-64
2024/01/05 05:13:09;;;;;;;2.53;1.73;;;7.90;99.90;;;7.90;89.98;99186.19;4801997;28;25079;-65
2024/01/05 05:15:31;;;;;;;2.88;1.80;;;7.90;99.90;;;7.83;90.34;99188.47;4836584;28;24470;-64
2024/01/05 05:17:53;;;;;;;5.80;2.30;;;7.80;99.90;;;7.86;90.17;99190.00;4817906;28;25366;-65
2024/01/05 05:20:16;;;;;;;2.63;2.10;;;7.80;99.90;;;7.82;90.36;99194.59;4834437;28;24531;-64
2024/01/05 05:22:38;;;;;;;3.92;2.20;;;7.80;99.90;;;7.83;90.46;99199.69;4818344;28;24874;-66
2024/01/05 05:25:00;;;;;;;2.40;1.80;;;7.80;99.90;;;7.88;90.93;99194.06;4834664;28;24523;-64
2024/01/05 05:27:25;;;;;;;4.05;2.17;;;7.80;99.90;;;7.91;91.04;99193.00;4829352;28;24476;-64
2024/01/05 05:29:48;;;;;;;2.70;2.22;;;7.80;99.90;;;7.94;90.61;99193.59;4827977;28;24444;-64
2024/01/05 05:32:10;;;;;;;4.22;2.40;;;7.90;99.90;;;8.00;90.41;99197.44;4835374;28;24490;-65
2024/01/05 05:34:32;;;;;;;5.83;2.53;;;7.90;99.90;;;7.99;90.57;99200.97;4827254;28;24522;-64
2024/01/05 05:36:54;;;;;;;4.15;2.40;;;7.90;99.90;;;8.02;90.46;99195.53;4832080;28;24523;-64
2024/01/05 05:39:15;;;;;;;4.50;2.40;;;7.90;99.90;;;7.87;90.75;99199.41;4825419;28;25004;-65
2024/01/05 05:41:37;;;;;;;4.45;2.40;;;7.90;99.90;;;7.93;90.58;99191.94;4821553;28;24482;-66
2024/01/05 05:43:59;;;;;;;5.90;2.30;;;7.90;99.90;;;7.95;90.96;99196.97;4805267;28;24452;-66
2024/01/05 05:46:21;;;;;;;2.97;2.22;;;7.90;99.90;;;7.98;90.74;99197.56;4802533;28;24465;-64
2024/01/05 05:48:43;;;;;;;4.93;2.80;;;7.90;99.90;;;7.95;90.68;99195.22;4834546;28;24507;-65
2024/01/05 05:51:06;;;;;;;2.40;2.20;;;7.90;99.90;;;7.93;90.95;99201.50;4829239;28;24507;-65
2024/01/05 05:53:28;;;;;;;2.58;2.10;;;7.90;99.90;;;7.83;92.17;99207.47;4835877;28;24919;-65
2024/01/05 05:55:50;;;;;;;5.88;2.38;;;7.80;99.90;;;7.77;92.71;99202.75;4835024;28;24433;-66
2024/01/05 05:58:12;;;;;;;4.00;2.30;;;7.80;99.90;;;7.81;92.27;99198.94;4835863;28;24543;-66
2024/01/05 06:00:35;;;;;;;2.57;2.00;;;7.80;99.90;;;7.71;93.28;99197.25;4815862;28;24452;-66
2024/01/05 06:02:57;;;;;;;2.55;1.55;;;7.70;99.90;;;7.74;93.04;99195.25;4817497;28;24448;-65
2024/01/05 06:05:19;;;;;;;3.22;2.00;;;7.70;99.90;;;7.71;93.51;99192.06;4826448;28;24445;-64
2024/01/05 06:07:41;;;;;;;4.00;1.90;;;7.70;99.90;;;7.69;92.92;99199.16;4817298;28;24439;-66
2024/01/05 06:10:04;;;;;;;7.38;2.20;;;7.70;99.90;;;7.66;93.76;99195.06;4814931;28;21291;-65
2024/01/05 06:12:26;;;;;;;2.38;2.17;;;7.70;99.90;;;7.64;93.67;99201.31;4838810;28;24420;-65
2024/01/05 06:14:48;;;;;;;4.10;2.20;;;7.70;99.90;;;7.62;93.95;99208.41;4838717;28;24428;-65
2024/01/05 06:17:10;;;;;;;2.20;2.10;;;7.60;99.90;;;7.62;93.88;99209.22;4822024;28;25072;-64
2024/01/05 06:19:32;;;;;;;3.75;2.10;;;7.60;99.90;;;7.59;94.40;99212.06;4817742;28;24428;-66
2024/01/05 06:21:57;;;;;;;5.90;1.80;;;7.60;99.90;;;7.57;94.30;99213.97;4820287;28;24429;-66
2024/01/05 06:24:19;;;;;;;3.55;2.10;;;7.60;99.90;;;7.67;93.15;99211.44;4803957;28;25054;-66
2024/01/05 06:26:41;;;;;;;6.25;2.40;;;7.60;99.90;;;7.70;93.54;99212.03;4836011;28;24822;-65
2024/01/05 06:29:03;;;;;;;5.30;2.70;;;7.70;99.90;;;7.72;92.99;99217.91;4837497;28;24479;-65
2024/01/05 06:31:25;;;;;;;8.45;2.58;;;7.70;99.90;;;7.78;92.94;99214.81;4803653;28;24547;-64
2024/01/05 06:33:47;;;;;;;3.28;2.50;;;7.70;99.90;;;7.82;92.31;99223.97;4833115;28;25077;-66
2024/01/05 06:36:09;;;;;;;5.10;2.50;;;7.80;99.90;;;7.87;92.40;99225.38;4835971;28;24539;-65
2024/01/05 06:38:31;;;;;;;3.92;2.30;;;7.80;99.90;;;7.88;92.92;99227.03;4823227;28;24825;-66
2024/01/05 06:40:53;;;;;;;4.80;1.70;;;7.80;99.90;;;7.89;92.36;99223.47;4828146;28;24491;-65
2024/01/05 06:43:15;;;;;;;6.95;2.47;;;7.80;99.90;;;7.84;93.17;99227.28;4837620;28;24428;-66
2024/01/05 06:45:37;;;;;;;2.55;2.03;;;7.80;99.90;;;7.82;93.73;99221.38;4833068;28;24528;-66
2024/01/05 06:47:59;;;;;;;2.67;2.30;;;7.80;99.90;;;7.86;93.34;99221.16;4811514;28;24831;-66
2024/01/05 06:50:23;;;;;;;3.58;1.98;;;7.80;99.90;;;7.86;92.98;99229.75;4828037;28;24441;-66
2024/01/05 06:52:45;;;;;;;4.40;2.10;;;7.90;99.90;;;7.78;93.49;99224.34;4828846;28;24802;-66
2024/01/05 06:55:09;;;;;;;3.25;1.90;;;7.80;99.90;;;7.81;93.18;99224.91;4819945;28;24440;-63
2024/01/05 06:57:31;;;;;;;7.15;2.67;;;7.80;99.90;;;7.74;94.28;99228.16;4816994;28;24452;-64
2024/01/05 06:59:53;;;;;;;5.00;2.30;;;7.70;99.90;;;7.70;94.11;99216.38;4804773;28;24439;-65
2024/01/05 07:02:16;;;;;;;4.03;2.30;;;7.70;99.90;;;7.77;93.84;99223.53;4826736;28;24508;-67
2024/01/05 07:04:40;;;;;;;2.80;1.90;;;7.70;99.90;;;7.78;93.74;99225.19;4822931;28;24460;-65
2024/01/05 07:07:02;;;;;;;4.53;2.50;;;7.70;99.90;;;7.82;93.63;99229.19;4819307;28;25065;-65
2024/01/05 07:09:24;;;;;;;3.63;2.10;;;7.70;99.90;;;7.84;93.13;99223.84;4827199;28;24455;-65
2024/01/05 07:11:46;;;;;;;3.13;1.80;;;7.80;99.90;;;7.77;93.87;99231.31;4796640;28;24440;-65
2024/01/05 07:14:08;;;;;;;2.70;1.98;;;7.80;99.90;;;7.86;93.60;99232.34;4829999;28;24457;-65
2024/01/05 07:16:30;;;;;;;4.00;2.50;;;7.80;99.90;;;7.90;93.35;99236.31;4828713;28;24467;-65
2024/01/05 07:18:53;;;;;;;3.38;2.10;;;7.80;99.90;;;7.84;93.54;99235.06;4836982;28;24819;-65
2024/01/05 07:21:16;;;;;;;3.10;2.13;;;7.80;99.90;;;7.84;93.15;99242.03;4830863;28;25390;-63
2024/01/05 07:23:38;;;;;;;5.30;2.10;;;7.80;99.90;;;7.75;93.83;99246.19;4820259;28;24962;-65
2024/01/05 07:26:00;;;;;;;2.40;2.20;;;7.80;99.90;;;7.77;93.56;99233.91;4835731;28;24467;-64
2024/01/05 07:28:22;;;;;;;3.85;2.40;;;7.70;99.90;;;7.84;93.64;99237.66;4814823;28;24451;-66
2024/01/05 07:30:44;;;;;;;2.30;2.10;;;7.80;99.90;;;7.94;92.35;99229.94;4835921;28;24429;-65
2024/01/05 07:33:06;;;;;;;5.22;2.25;;;7.80;99.90;;;7.99;92.06;99224.34;4830726;28;24842;-66
2024/01/05 07:35:28;;;;;;;4.90;2.15;;;7.90;99.90;;;8.07;91.87;99222.75;4835228;28;24539;-65
2024/01/05 07:37:53;;;;;;;3.35;2.30;;;8.00;99.90;;;8.08;91.91;99228.78;4823799;28;24551;-64
2024/01/05 07:40:15;;;;;;;4.65;2.25;;;8.00;99.90;;;8.10;91.93;99237.25;4829542;28;24981;-65
2024/01/05 07:42:37;;;;;;;2.60;2.10;;;8.00;99.90;;;8.04;91.63;99245.56;4827529;28;24531;-64
2024/01/05 07:45:00;;;;;;;3.40;2.03;;;8.00;99.90;;;8.04;91.77;99242.97;4818450;28;24463;-64
2024/01/05 07:47:22;;;;;;;4.30;2.20;;;8.00;99.90;;;8.05;91.49;99236.84;4811695;28;25113;-65
2024/01/05 07:49:44;;;;;;;3.80;2.30;;;8.00;99.90;;;8.12;91.52;99238.78;4826000;28;24518;-65
2024/01/05 07:52:06;;;;;;;3.63;2.00;;;8.00;99.90;;;8.13;90.97;99226.63;4812885;28;24467;-65
2024/01/05 07:54:28;;;;;;;2.88;2.50;;;8.00;99.90;;;8.17;91.20;99221.06;4834867;28;24511;-64
2024/01/05 07:56:50;;;;;;;3.13;2.47;;;8.10;99.90;;;8.26;90.33;99224.69;4817155;28;25103;-67
2024/01/05 07:59:12;;;;;;;6.07;2.40;;;8.10;99.90;;;8.29;90.57;99229.59;4801938;28;24515;-64
2024/01/05 08:01:34;;;;;;;4.22;2.53;;;8.20;99.90;;;8.30;90.56;99215.66;4821817;28;25220;-65
2024/01/05 08:03:55;;;;;;;3.33;2.40;;;8.20;99.90;;;8.35;90.16;99218.69;4827365;28;24476;-65
2024/01/05 08:06:19;;;;;;;3.75;2.70;;;8.20;99.90;;;8.40;90.17;99221.72;4820950;28;24449;-64
2024/01/05 08:08:52;;;;;;;3.10;2.40;;;8.30;99.90;;;8.44;89.31;99210.13;4832166;28;25021;-65
2024/01/05 08:11:14;;;;;;;3.53;2.15;;;8.30;99.90;;;8.54;89.46;99208.38;4818070;28;24591;-65
2024/01/05 08:13:36;;;;;;;4.43;2.60;;;8.40;99.90;;;8.70;88.36;99195.69;4817638;28;24539;-65
2024/01/05 08:15:58;;;;;;;3.72;2.35;;;8.50;99.90;;;8.75;87.71;99201.34;4817402;28;24464;-65
2024/01/05 08:18:20;;;;;;;4.35;2.72;;;8.60;99.90;;;8.87;87.70;99202.88;4822987;28;24464;-66
2024/01/05 08:20:42;;;;;;;3.83;2.60;;;8.70;99.90;;;9.09;87.02;99197.41;4835874;28;24527;-65
2024/01/05 08:23:04;;;;;;;5.30;2.90;;;8.80;99.90;;;9.32;85.46;99191.00;4817210;28;24499;-65
2024/01/05 08:25:26;;;;;;;3.60;2.80;;;9.10;99.90;;;9.46;84.35;99191.53;4834009;28;24879;-64
2024/01/05 08:27:48;;;;;;;4.15;2.80;;;9.20;99.90;;;9.57;83.61;99191.38;4833058;28;24440;-64
2024/01/05 08:30:12;;;;;;;6.57;2.70;;;9.30;99.90;;;9.63;84.48;99201.25;4836336;28;20833;-65
2024/01/05 08:32:35;;;;;;;4.75;2.50;;;9.40;99.90;;;9.78;83.16;99189.44;4812162;28;24875;-65
2024/01/05 08:34:57;;;;;;;5.35;2.78;;;9.60;99.90;;;9.71;82.68;99190.97;4808139;28;24515;-65
2024/01/05 08:37:19;;;;;;;3.88;2.90;;;9.60;99.90;;;9.62;83.21;99189.19;4816456;28;24451;-65
2024/01/05 08:39:42;;;;;;;3.55;3.00;;;9.50;99.90;;;9.38;83.93;99180.03;4833644;28;24452;-65
2024/01/05 08:42:04;;;;;;;3.67;2.60;;;9.40;99.90;;;9.38;84.45;99182.63;4827592;28;24448;-64
2024/01/05 08:44:26;;;;;;;3.60;3.00;;;9.30;99.90;;;9.42;83.65;99187.56;4795269;28;24447;-63
2024/01/05 08:46:48;;;;;;;3.08;2.78;;;9.30;99.90;;;9.41;84.09;99181.56;4799555;28;24972;-65
2024/01/05 08:49:10;;;;;;;3.67;2.88;;;9.30;99.90;;;9.30;84.11;99177.31;4818473;28;24460;-65
2024/01/05 08:51:32;;;;;;;3.20;2.42;;;9.20;99.90;;;9.37;84.56;99175.78;4828034;28;25052;-64
2024/01/05 08:53:55;;;;;;;4.93;2.53;;;9.20;99.90;;;9.72;83.84;99185.63;4835914;28;24499;-65
2024/01/05 08:56:17;;;;;;;2.57;2.10;;;9.40;99.90;;;10.93;78.46;99174.16;4831724;28;24447;-65
2024/01/05 08:58:39;;;;;;;2.40;2.20;;;10.20;99.90;;;12.96;70.84;99176.16;4818103;28;24571;-65
2024/01/05 09:01:01;;;;;;;3.92;2.60;;;11.70;99.90;;;15.08;63.08;99169.38;4828355;28;24854;-65
2024/01/05 09:03:23;;;;;;;3.05;2.40;;;13.60;99.90;;;16.91;57.08;99184.53;4820253;28;24579;-65
2024/01/05 09:05:46;;;;;;;6.30;2.77;;;15.30;99.90;;;17.67;53.82;99186.56;4834779;28;24427;-65
2024/01/05 09:08:08;;;;;;;3.00;2.67;;;16.50;99.90;;;18.37;51.97;99186.44;4829743;28;24456;-66
2024/01/05 09:10:33;;;;;;;2.60;2.40;;;17.20;99.90;;;17.26;53.25;99198.69;4835121;28;24539;-65
2024/01/05 09:12:55;;;;;;;2.77;2.33;;;17.10;99.90;;;15.94;56.88;99195.34;4818106;28;24516;-65
2024/01/05 09:15:17;;;;;;;4.45;2.60;;;16.00;99.90;;;14.70;60.85;99197.31;4819360;28;24478;-65
2024/01/05 09:17:40;;;;;;;2.80;2.20;;;14.90;99.90;;;13.21;65.92;99188.34;4834376;28;24434;-65
2024/01/05 09:20:03;;;;;;;2.58;2.20;;;13.70;99.90;;;12.49;68.58;99195.94;4834925;28;24459;-65
2024/01/05 09:22:25;;;;;;;3.40;2.00;;;12.80;99.90;;;11.99;70.69;99187.97;4829826;28;25218;-65
2024/01/05 09:24:47;;;;;;;4.10;2.22;;;12.20;99.90;;;11.80;72.63;99201.22;4811101;28;24524;-64
2024/01/05 09:27:09;;;;;;;4.35;2.10;;;11.80;99.90;;;11.48;73.90;99204.38;4817824;28;24985;-64
2024/01/05 09:29:32;;;;;;;2.20;2.00;;;11.40;99.90;;;11.13;74.91;99214.00;4832970;28;24487;-65
2024/01/05 09:31:54;;;;;;;4.53;2.10;;;11.10;99.90;;;10.83;76.09;99208.16;4807553;28;24448;-64
2024/01/05 09:34:17;;;;;;;1.60;1.50;;;10.90;99.90;;;10.59;76.92;99225.28;4814800;28;24467;-63
2024/01/05 09:36:42;;;;;;;3.38;2.30;;;10.60;99.90;;;10.53;77.56;99225.88;4833180;28;24978;-65
2024/01/05 09:39:05;;;;;;;2.25;2.03;;;10.50;99.90;;;10.57;78.60;99222.00;4834970;28;24547;-65
2024/01/05 09:41:27;;;;;;;2.50;1.90;;;10.40;99.90;;;10.51;78.46;99219.97;4835864;28;24429;-64
2024/01/05 09:43:50;;;;;;;3.10;2.10;;;10.30;99.90;;;10.63;78.35;99227.47;4801444;28;24449;-65
2024/01/05 09:46:12;;;;;;;5.15;2.10;;;10.40;99.90;;;10.74;78.52;99218.63;4827575;28;24444;-65
2024/01/05 09:48:35;;;;;;;3.78;2.10;;;10.50;99.90;;;10.82;77.81;99219.53;4820431;28;24527;-65
2024/01/05 09:51:08;;;;;;;3.50;1.80;;;10.50;99.90;;;10.64;79.04;99236.13;4831430;28;24448;-65
2024/01/05 09:53:30;;;;;;;3.17;2.10;;;10.50;99.90;;;10.36;80.99;99245.69;4838575;28;24946;-65
2024/01/05 09:55:54;;;;;;;2.90;1.70;;;10.40;99.90;;;10.38;80.92;99241.16;4825420;28;24536;-65
2024/01/05 09:58:17;;;;;;;3.40;2.22;;;10.30;99.90;;;10.48;80.26;99243.72;4824705;28;24913;-64
2024/01/05 10:00:41;;;;;;;3.47;2.20;;;10.30;99.90;;;10.63;80.26;99240.50;4821027;28;24535;-65
2024/01/05 10:03:08;;;;;;;3.92;2.10;;;10.30;99.90;;;10.73;79.54;99243.88;4813307;28;24429;-65
2024/01/05 10:05:31;;;;;;;2.70;2.08;;;10.40;99.90;;;10.88;78.47;99239.84;4819031;28;24535;-65
2024/01/05 10:07:56;;;;;;;3.53;2.00;;;10.60;99.90;;;11.05;79.45;99240.84;4838223;28;24439;-64
2024/01/05 10:10:18;;;;;;;2.40;2.00;;;10.70;99.90;;;11.14;77.53;99237.34;4835351;28;24448;-64